Flight Track Log - Related Links

Times and Time Zones

All times are in EDT time to prevent confusion due to time zone crossing. See the ASQ4577 flight status page for this flight to view local times or setup timezone preferences in your user account.

Time Position Orientation Groundspeed Altitude Reporting Facility
EDT Latitude Longitude Course Direction KTS MPH feet Rate Location/Type
Mon 03:30:03 PM 39.8833 -104.5833 90° East 190 219 6,700  Level Denver TRACON
Mon 03:30:57 PM 39.8833 -104.5167 90° East 230 265 7,800 1,438 Climbing Denver TRACON
Mon 03:32:04 PM 39.8742 -104.3919 95° East 276 318 9,600 1,256 Climbing Denver Center
Mon 03:33:06 PM 39.8739 -104.3092 90° East 292 336 10,500 968 Climbing Denver Center
Mon 03:34:08 PM 39.8731 -104.1528 90° East 353 406 11,600 1,065 Climbing Denver Center
Mon 03:35:10 PM 39.8722 -104.0044 90° East 378 435 12,700 1,258 Climbing Denver Center
Mon 03:36:12 PM 39.8728 -103.8633 90° East 390 449 14,200 1,544 Climbing Denver Center
Mon 03:37:26 PM 39.8883 -103.6819 84° East 390 449 16,200 1,544 Climbing Denver Center
Mon 03:38:28 PM 39.9039 -103.5544 81° East 382 440 17,700 1,403 Climbing Denver Center
Mon 03:39:30 PM 39.9214 -103.4056 81° East 391 450 19,100 1,415 Climbing Denver Center
Mon 03:40:31 PM 39.9347 -103.2700 83° East 393 452 20,600 1,561 Climbing Denver Center
Mon 03:41:33 PM 39.9542 -103.1161 81° East 385 443 22,300 1,548 Climbing Denver Center
Mon 03:42:35 PM 39.9678 -102.9822 82° East 386 444 23,800 1,548 Climbing Denver Center
Mon 03:43:37 PM 39.9842 -102.8289 82° East 384 442 25,500 1,452 Climbing Denver Center
Mon 03:44:39 PM 39.9981 -102.6972 82° East 382 440 26,800 1,306 Climbing Denver Center
Mon 03:45:41 PM 40.0156 -102.5439 81° East 383 441 28,200 1,268 Climbing Denver Center
Mon 03:46:42 PM 40.0289 -102.4117 82° East 386 444 29,400 1,171 Climbing Denver Center
Mon 03:47:44 PM 40.0425 -102.2800 82° East 383 441 30,600 1,161 Climbing Denver Center
Mon 03:48:46 PM 40.0581 -102.1250 82° East 385 443 31,800 971 Climbing Denver Center
Mon 03:50:00 PM 40.0717 -101.9928 82° East 386 444 32,800 1,059 Climbing Denver Center
Mon 03:51:02 PM 40.0894 -101.8150 82° East 388 447 34,200 1,024 Climbing Denver Center
Mon 03:52:03 PM 40.0997 -101.7053 83° East 385 443 34,900 390 Climbing Denver Center
Mon 03:53:05 PM 40.1178 -101.5247 82° East 394 453 35,000 48 Climbing Denver Center
Mon 03:54:07 PM 40.1319 -101.3808 83° East 412 474 35,000  Level Denver Center
Mon 03:55:09 PM 40.1661 -101.2111 75° East 432 497 35,000  Level Denver Center
Mon 03:56:10 PM 40.1914 -101.0889 75° East 437 503 35,000  Level Denver Center
Mon 03:57:13 PM 40.2325 -100.8914 75° East 443 510 35,000  Level Denver Center
Mon 03:58:26 PM 40.2622 -100.7439 75° East 442 509 35,000  Level Denver Center
Mon 03:59:28 PM 40.3028 -100.5492 75° East 435 501 35,000  Level Denver Center
Mon 04:00:30 PM 40.3267 -100.4275 76° East 435 501 35,000  Level Denver Center
Mon 04:01:32 PM 40.3664 -100.2308 75° East 440 506 35,000  Level Denver Center
Mon 04:02:34 PM 40.4006 -100.0561 76° East 445 512 35,000  Level Denver Center
Mon 04:03:36 PM 40.4303 -99.9061 75° East 445 512 35,000  Level Denver Center
Mon 04:04:37 PM 40.4633 -99.7375 75° East 447 514 35,000  Level Denver Center
Mon 04:05:39 PM 40.4939 -99.5789 76° East 449 517 35,000  Level Denver Center
Mon 04:06:41 PM 40.5253 -99.4206 75° East 450 518 35,000  Level Denver Center
Mon 04:07:43 PM 40.5550 -99.2611 76° East 450 518 35,000  Level Denver Center
Mon 04:08:45 PM 40.5858 -99.1022 76° East 451 519 35,000  Level Denver Center
Mon 04:09:18 PM 40.6031 -99.0089 76° East 448 516 35,000  Level Minneapolis Center
Mon 04:10:20 PM 40.6317 -98.8503 77° East 449 517 35,000  Level Minneapolis Center
Mon 04:11:22 PM 40.6611 -98.6928 76° East 448 516 35,000  Level Minneapolis Center
Mon 04:12:23 PM 40.6967 -98.5019 76° East 449 517 35,000  Level Minneapolis Center
Mon 04:13:25 PM 40.7256 -98.3439 76° East 449 517 35,000  Level Minneapolis Center
Mon 04:14:27 PM 40.7536 -98.1850 77° East 448 516 35,000  Level Minneapolis Center
Mon 04:15:29 PM 40.7833 -98.0261 76° East 449 517 35,000  Level Minneapolis Center
Mon 04:16:43 PM 40.8167 -97.8331 77° East 450 518 35,000  Level Minneapolis Center
Mon 04:17:45 PM 40.8442 -97.6725 77° East 450 518 35,000  Level Minneapolis Center
Mon 04:18:47 PM 40.8794 -97.4772 77° East 455 524 35,000  Level Minneapolis Center
Mon 04:19:49 PM 40.9069 -97.3136 77° East 452 520 35,000  Level Minneapolis Center
Mon 04:20:50 PM 40.9339 -97.1508 78° East 453 521 35,000  Level Minneapolis Center
Mon 04:21:52 PM 40.9614 -96.9883 77° East 454 522 35,000  Level Minneapolis Center
Mon 04:22:54 PM 40.9897 -96.8267 77° East 454 522 35,000  Level Minneapolis Center
Mon 04:23:56 PM 41.0172 -96.6639 77° East 454 522 35,000  Level Minneapolis Center
Mon 04:24:58 PM 41.0439 -96.5019 78° East 454 522 35,000  Level Minneapolis Center
Mon 04:26:00 PM 41.0756 -96.3089 78° East 451 519 35,000  Level Minneapolis Center
Mon 04:27:02 PM 41.1008 -96.1492 78° East 450 518 35,000  Level Minneapolis Center
Mon 04:28:04 PM 41.1269 -95.9833 78° East 456 525 35,000  Level Minneapolis Center
Mon 04:29:06 PM 41.1533 -95.8197 78° East 453 521 35,000  Level Minneapolis Center
Mon 04:30:08 PM 41.1786 -95.6569 78° East 451 519 35,000  Level Minneapolis Center
Mon 04:31:10 PM 41.2047 -95.4700 79° East 449 517 35,000  Level Minneapolis Center
Mon 04:32:12 PM 41.2289 -95.3050 79° East 456 525 35,000  Level Minneapolis Center
Mon 04:33:14 PM 41.2522 -95.1411 79° East 455 524 35,000  Level Minneapolis Center
Mon 04:34:16 PM 41.2747 -94.9781 80° East 451 519 35,000  Level Minneapolis Center
Mon 04:35:18 PM 41.2958 -94.8150 80° East 450 518 35,000  Level Minneapolis Center
Mon 04:36:20 PM 41.3228 -94.6189 80° East 450 518 35,000  Level Minneapolis Center
Mon 04:37:22 PM 41.3444 -94.4550 80° East 450 518 35,000  Level Minneapolis Center
Mon 04:38:24 PM 41.3661 -94.2914 80° East 450 518 35,000  Level Minneapolis Center
Mon 04:39:26 PM 41.3889 -94.1169 80° East 451 519 35,000  Level Minneapolis Center
Mon 04:40:28 PM 41.4108 -93.9531 80° East 452 520 35,000  Level Minneapolis Center
Mon 04:41:30 PM 41.4308 -93.7892 81° East 452 520 35,000  Level Minneapolis Center
Mon 04:42:32 PM 41.4517 -93.6258 80° East 450 518 35,000  Level Minneapolis Center
Mon 04:43:34 PM 41.4739 -93.4589 80° East 455 524 35,000  Level Minneapolis Center
Mon 04:44:37 PM 41.4981 -93.2592 81° East 458 527 35,000  Level Minneapolis Center
Mon 04:45:39 PM 41.5183 -93.0947 81° East 454 522 35,000  Level Minneapolis Center
Mon 04:46:41 PM 41.5392 -92.9292 80° East 454 522 35,000  Level Minneapolis Center
Mon 04:47:43 PM 41.5589 -92.7639 81° East 454 522 35,000  Level Minneapolis Center
Mon 04:48:45 PM 41.5783 -92.5969 81° East 455 524 35,000  Level Minneapolis Center
Mon 04:49:19 PM 41.5897 -92.4917 82° East 457 526 35,000  Level Chicago Center
Mon 04:50:20 PM 41.6089 -92.3228 81° East 463 533 35,000  Level Chicago Center
Mon 04:51:23 PM 41.6283 -92.1575 81° East 457 526 35,000  Level Chicago Center
Mon 04:52:25 PM 41.6514 -91.9567 81° East 462 532 35,000  Level Chicago Center
Mon 04:53:27 PM 41.6697 -91.7903 82° East 459 528 35,000  Level Chicago Center
Mon 04:54:29 PM 41.6872 -91.6244 82° East 457 526 35,000  Level Chicago Center
Mon 04:55:31 PM 41.7058 -91.4575 81° East 459 528 35,000  Level Chicago Center
Mon 04:56:33 PM 41.7261 -91.2583 82° East 457 526 35,000  Level Chicago Center
Mon 04:57:35 PM 41.7436 -91.0944 82° East 455 524 35,000  Level Chicago Center
Mon 04:58:37 PM 41.7594 -90.9281 83° East 456 525 35,000  Level Chicago Center
Mon 04:59:39 PM 41.7769 -90.7611 82° East 456 525 35,000  Level Chicago Center
Mon 05:00:41 PM 41.7969 -90.5636 82° East 454 522 35,000  Level Chicago Center
Mon 05:01:43 PM 41.8128 -90.3986 83° East 452 520 35,000  Level Chicago Center
Mon 05:02:45 PM 41.8289 -90.2319 83° East 455 524 35,000  Level Chicago Center
Mon 05:03:47 PM 41.8444 -90.0667 83° East 453 521 35,000  Level Chicago Center
Mon 05:04:50 PM 41.8603 -89.8908 83° East 451 519 35,000  Level Chicago Center
Mon 05:05:52 PM 41.8750 -89.7258 83° East 448 516 35,000  Level Chicago Center
Mon 05:06:54 PM 41.8908 -89.5597 83° East 450 518 35,000  Level Chicago Center
Mon 05:07:56 PM 41.9083 -89.3581 83° East 455 524 35,000  Level Chicago Center
Mon 05:08:58 PM 41.9236 -89.1917 83° East 452 520 35,000  Level Chicago Center
Mon 05:10:00 PM 41.9369 -89.0247 84° East 452 520 35,000  Level Chicago Center
Mon 05:11:02 PM 41.9503 -88.8564 84° East 456 525 35,000  Level Chicago Center
Mon 05:12:04 PM 41.9642 -88.6914 83° East 449 517 35,000  Level Chicago Center
Mon 05:13:06 PM 41.9800 -88.4914 84° East 448 516 35,000  Level Chicago Center
Mon 05:14:08 PM 41.9933 -88.3261 84° East 446 513 35,000  Level Chicago Center
Mon 05:15:10 PM 42.0058 -88.1597 84° East 446 513 35,000  Level Chicago Center
Mon 05:16:12 PM 42.0194 -87.9919 84° East 449 517 35,000  Level Chicago Center
Mon 05:17:15 PM 42.0311 -87.8258 85° East 448 516 35,000  Level Chicago Center
Mon 05:18:17 PM 42.0433 -87.6592 84° East 448 516 35,000  Level Chicago Center
Mon 05:19:19 PM 42.0583 -87.4611 84° East 445 512 35,000  Level Chicago Center
Mon 05:20:21 PM 42.0689 -87.2939 85° East 447 514 35,000  Level Chicago Center
Mon 05:21:23 PM 42.0806 -87.1297 84° East 442 509 35,000  Level Chicago Center
Mon 05:22:25 PM 42.0897 -86.9644 86° East 444 511 35,000  Level Chicago Center
Mon 05:23:27 PM 42.1019 -86.8008 84° East 441 507 35,000  Level Chicago Center
Mon 05:24:29 PM 42.1139 -86.6208 85° East 443 510 35,000  Level Chicago Center
Mon 05:25:31 PM 42.1242 -86.4539 85° East 446 513 35,000 -417 Level Chicago Center
Mon 05:27:00 PM 42.1265 -86.2197 85° East  Level FlightAware Approximate
Mon 05:27:36 PM 42.1436 -86.1258 85° East 439 505 33,700  Level Chicago Center
Mon 05:28:38 PM 42.1386 -85.9406 92° East 440 506 32,300 -1,306 Descending Chicago Center
Mon 05:29:40 PM 42.1347 -85.7711 92° East 452 520 31,000 -629 Descending Chicago Center
Mon 05:30:42 PM 42.1300 -85.5997 92° East 459 528 31,000  Level Chicago Center
Mon 05:31:44 PM 42.1242 -85.4289 93° East 459 528 31,000  Level Chicago Center
Mon 05:32:09 PM 42.1239 -85.3431 90° East 460 529 31,000  Level Cleveland Center
Mon 05:33:09 PM 42.1189 -85.1581 92° East 460 529 31,000  Level Cleveland Center
Mon 05:34:09 PM 42.1153 -84.9839 92° East 465 535 31,000 -50 Level Cleveland Center
Mon 05:35:09 PM 42.1053 -84.8097 94° East 465 535 30,900 -500 Descending Cleveland Center
Mon 05:36:09 PM 42.1008 -84.6386 92° East 465 535 30,000 -1,100 Descending Cleveland Center
Mon 05:37:09 PM 42.0944 -84.4675 93° East 465 535 28,700 -1,300 Descending Cleveland Center
Mon 05:38:09 PM 42.0833 -84.2961 95° East 460 529 27,400 -1,200 Descending Cleveland Center
Mon 05:39:09 PM 42.0756 -84.1472 94° East 460 529 26,300 -1,150 Descending Cleveland Center
Mon 05:40:09 PM 42.0700 -83.9847 93° East 449 517 25,100 -1,150 Descending Cleveland Center
Mon 05:41:09 PM 42.0622 -83.8219 94° East 443 510 24,000 -800 Descending Cleveland Center
Mon 05:42:09 PM 42.0542 -83.6594 94° East 438 504 23,500 -500 Descending Cleveland Center
Mon 05:43:09 PM 42.0481 -83.4969 93° East 438 504 23,000 -250 Descending Cleveland Center
Mon 05:44:09 PM 42.0331 -83.3397 97° East 426 490 23,000 -50 Level Cleveland Center
Mon 05:45:09 PM 42.0186 -83.1628 96° East 432 497 22,900 -850 Descending Cleveland Center
Mon 05:46:09 PM 42.0033 -83.0031 97° East 432 497 21,300 -1,750 Descending Cleveland Center
Mon 05:47:09 PM 41.9875 -82.8489 98° East 432 497 19,400 -1,150 Descending Cleveland Center
Mon 05:48:09 PM 41.9800 -82.7006 94° East 420 483 19,000 -600 Descending Cleveland Center
Mon 05:49:09 PM 41.9828 -82.5525 89° East 404 465 18,200 -886 Descending Cleveland Center
Mon 05:49:37 PM 41.9817 -82.4797 91° East 395 455 17,700 -1,900 Descending Cleveland Center
Mon 05:50:09 PM 41.9642 -82.4094 108° East 394 453 16,300 -2,838 Descending Cleveland Center
Mon 05:50:51 PM 41.9194 -82.3328 128° Southeast 394 453 14,200 -3,300 Descending Cleveland Center
Mon 05:51:09 PM 41.9014 -82.2906 120° Southeast 376 433 13,000 -3,000 Descending Cleveland Center
Mon 05:52:09 PM 41.8383 -82.1886 130° Southeast 369 425 10,300 -1,982 Descending Cleveland Center
Mon 05:52:58 PM 41.7806 -82.1369 146° Southeast 279 321 9,400 -1,200 Descending Cleveland Center
Mon 05:53:59 PM 41.7147 -82.0769 146° Southeast 287 330 8,100 -1,180 Descending Cleveland Center
Mon 05:55:00 PM 41.6467 -82.0169 147° Southeast 282 325 7,000 -569 Descending Cleveland Center
Mon 05:55:55 PM 41.5889 -81.9631 145° Southeast 287 330 7,000  Level Cleveland Center
Mon 05:56:56 PM 41.5186 -81.9225 157° South 281 323 7,000  Level Cleveland Center
Mon 05:58:09 PM 41.4394 -81.9208 179° South 267 307 7,000 -472 Level Cleveland Center
Mon 05:59:03 PM 41.4053 -81.9756 230° Southwest 167 192 6,000 -1,043 Descending Cleveland Center
Mon 06:00:04 PM 41.3714 -82.0219 226° Southwest 172 198 5,000 -780 Descending Cleveland Center
Mon 06:01:06 PM 41.3300 -81.9906 150° Southeast 187 215 4,400 -1,131 Descending Cleveland Center
Mon 06:02:06 PM 41.3514 -81.9469 57° Northeast 149 171 2,700 -1,488 Descending Cleveland Center
Mon 06:03:07 PM 41.3792 -81.9058 48° Northeast 139 160 1,400 -1,279 Descending Cleveland Center
Mon 06:05:00 PM 41.4000 -81.8500 90° East  Level FlightAware Approximate

Login

Don't have an account? Register now (free) for customized features, flight alerts, and more!